Time;durP1;ratioP1;P1;durP2;ratioP2;P2;SDS_P1;SDS_P2;PMS_P1;PMS_P2;Temp;Humidity;BMP_temperature;BMP_pressure;BME280_temperature;BME280_humidity;BME280_pressure;Samples;Min_cycle;Max_cycle;Signal;HPM_P1;HPM_P2
2024/01/15 00:01:32;;;;;;;10.85;2.67;;;;;;;1.49;100.00;100557.75;4909480;29;20035;-94
2024/01/15 00:03:59;;;;;;;8.95;2.60;;;;;;;1.52;100.00;100557.59;4908265;29;20038;-93
2024/01/15 00:06:26;;;;;;;6.00;2.70;;;;;;;1.51;100.00;100549.84;4889326;29;20043;-94
2024/01/15 00:08:52;;;;;;;14.38;3.25;;;;;;;1.50;100.00;100549.00;4902812;29;20098;-93
2024/01/15 00:11:19;;;;;;;15.35;3.10;;;;;;;1.44;100.00;100539.75;4901585;29;20040;-93
2024/01/15 00:13:57;;;;;;;7.20;2.55;;;;;;;1.44;100.00;100531.94;4894126;29;20039;-93
2024/01/15 00:16:23;;;;;;;9.57;2.97;;;;;;;1.35;100.00;100541.09;4903491;29;20195;-93
2024/01/15 00:18:49;;;;;;;10.55;3.38;;;;;;;1.35;100.00;100551.50;4903762;29;20123;-92
2024/01/15 00:21:17;;;;;;;8.13;3.10;;;;;;;1.38;100.00;100539.25;4903802;29;20043;-93
2024/01/15 00:23:46;;;;;;;13.23;4.07;;;;;;;1.41;100.00;100545.13;4918797;29;20040;-93
2024/01/15 00:26:12;;;;;;;10.77;4.35;;;;;;;1.41;100.00;100544.28;4904377;29;20035;-94
2024/01/15 00:28:38;;;;;;;6.65;3.58;;;;;;;1.40;100.00;100535.63;4905230;29;20039;-94
2024/01/15 00:31:05;;;;;;;13.77;5.25;;;;;;;1.38;100.00;100529.69;4888723;29;20044;-96
2024/01/15 00:33:33;;;;;;;16.58;5.03;;;;;;;1.28;100.00;100515.44;4900232;29;20047;-96
2024/01/15 00:36:04;;;;;;;9.60;3.38;;;;;;;1.28;100.00;100518.91;4899116;29;20043;-93
2024/01/15 00:38:30;;;;;;;9.52;3.42;;;;;;;1.31;100.00;100517.88;4890760;29;20044;-93
2024/01/15 00:41:22;;;;;;;11.88;3.28;;;;;;;1.33;100.00;100506.50;4905076;29;20391;-96
2024/01/15 00:43:49;;;;;;;8.13;3.40;;;;;;;1.22;100.00;100512.28;4893917;29;20036;-96
2024/01/15 00:46:15;;;;;;;12.32;3.75;;;;;;;1.23;100.00;100510.50;4890150;29;20043;-93
2024/01/15 00:48:43;;;;;;;8.52;3.17;;;;;;;1.21;100.00;100509.75;4886202;29;20040;-93
2024/01/15 00:51:10;;;;;;;12.00;3.58;;;;;;;1.19;100.00;100514.19;4890537;29;20051;-96
2024/01/15 00:53:36;;;;;;;9.20;3.67;;;;;;;1.10;100.00;100502.50;4899641;29;20036;-96
2024/01/15 00:56:03;;;;;;;10.57;4.38;;;;;;;1.02;100.00;100508.09;4911213;29;20054;-96
2024/01/15 00:58:30;;;;;;;10.23;3.45;;;;;;;0.97;100.00;100497.94;4897009;29;20140;-96
2024/01/15 01:00:59;;;;;;;5.65;2.70;;;;;;;0.86;100.00;100498.50;4898011;29;20079;-93
2024/01/15 01:03:25;;;;;;;10.82;3.28;;;;;;;0.88;100.00;100506.22;4896757;29;20070;-94
2024/01/15 01:05:51;;;;;;;9.15;3.78;;;;;;;0.81;100.00;100503.09;4887164;29;20039;-93
2024/01/15 01:08:17;;;;;;;11.23;3.17;;;;;;;0.76;100.00;100494.72;4886847;29;20090;-95
2024/01/15 01:10:43;;;;;;;11.02;3.10;;;;;;;0.80;100.00;100495.38;4887196;29;20078;-92
2024/01/15 01:13:09;;;;;;;10.77;3.25;;;;;;;0.80;100.00;100501.41;4889838;29;20067;-92
2024/01/15 01:15:35;;;;;;;4.80;2.90;;;;;;;0.79;100.00;100502.34;4885736;29;20126;-94
2024/01/15 01:18:01;;;;;;;8.80;3.60;;;;;;;0.71;100.00;100489.75;4892305;29;20536;-93
2024/01/15 01:20:27;;;;;;;9.18;3.05;;;;;;;0.72;100.00;100494.00;4885612;29;20032;-89
2024/01/15 01:22:53;;;;;;;10.90;2.95;;;;;;;0.72;100.00;100487.97;4900243;29;20110;-94
2024/01/15 01:25:19;;;;;;;8.88;3.38;;;;;;;0.76;100.00;100481.69;4902982;29;20060;-94
2024/01/15 01:27:45;;;;;;;10.80;3.60;;;;;;;0.75;100.00;100474.78;4908237;29;20104;-96
2024/01/15 01:30:14;;;;;;;15.82;5.07;;;;;;;0.79;100.00;100481.53;4913230;29;20044;-96
2024/01/15 01:32:43;;;;;;;18.70;6.75;;;;;;;0.86;100.00;100488.09;4906690;29;20040;-93
2024/01/15 01:35:09;;;;;;;20.67;8.63;;;;;;;0.89;100.00;100481.91;4887762;29;20051;-93
2024/01/15 01:37:35;;;;;;;21.73;6.13;;;;;;;0.86;100.00;100469.06;4906773;29;20074;-96
2024/01/15 01:40:08;;;;;;;10.98;4.35;;;;;;;0.85;100.00;100476.00;4899947;29;20115;-96
2024/01/15 01:42:39;;;;;;;16.92;3.47;;;;;;;0.83;100.00;100467.44;4901974;29;20051;-94
2024/01/15 01:45:05;;;;;;;7.38;2.65;;;;;;;0.84;100.00;100482.16;4886400;29;20448;-94
2024/01/15 01:47:32;;;;;;;7.43;2.58;;;;;;;0.79;100.00;100484.13;4888917;29;20035;-93
2024/01/15 01:49:58;;;;;;;12.82;3.22;;;;;;;0.76;100.00;100476.50;4900803;29;20032;-94
2024/01/15 01:52:24;;;;;;;8.50;2.83;;;;;;;0.78;100.00;100479.00;4900941;29;20038;-94
2024/01/15 01:54:51;;;;;;;16.98;5.10;;;;;;;0.77;100.00;100472.97;4900843;29;20056;-94
2024/01/15 01:57:19;;;;;;;25.88;8.65;;;;;;;0.76;100.00;100466.09;4910667;29;20087;-96
2024/01/15 01:59:54;;;;;;;91.43;30.42;;;;;;;0.79;100.00;100462.47;4913648;29;20035;-96
2024/01/15 02:02:21;;;;;;;17.30;6.57;;;;;;;0.73;100.00;100464.47;4885534;29;20032;-94
2024/01/15 02:04:48;;;;;;;26.15;7.90;;;;;;;0.79;100.00;100465.94;4898269;29;20498;-93
2024/01/15 02:07:17;;;;;;;79.25;35.78;;;;;;;0.77;100.00;100457.34;4908373;29;20050;-96
2024/01/15 02:09:49;;;;;;;12.93;5.55;;;;;;;0.76;100.00;100458.28;4936438;29;20050;-96
2024/01/15 02:12:16;;;;;;;48.05;23.38;;;;;;;0.79;100.00;100455.50;4889990;29;20043;-94
2024/01/15 02:14:42;;;;;;;25.88;11.45;;;;;;;0.79;100.00;100452.91;4891775;29;20032;-93
2024/01/15 02:17:08;;;;;;;10.30;2.95;;;;;;;0.77;100.00;100452.16;4887847;29;20038;-94
2024/01/15 02:19:34;;;;;;;8.43;2.30;;;;;;;0.78;100.00;100461.63;4886760;29;20085;-93
2024/01/15 02:21:59;;;;;;;9.40;2.70;;;;;;;0.75;100.00;100453.97;4903160;29;20063;-94
2024/01/15 02:24:25;;;;;;;6.35;2.53;;;;;;;0.76;100.00;100458.28;4885563;29;20040;-93
2024/01/15 02:26:51;;;;;;;6.38;3.20;;;;;;;0.72;100.00;100447.19;4899931;29;20025;-94
2024/01/15 02:29:17;;;;;;;9.32;2.75;;;;;;;0.73;100.00;100451.47;4892370;29;20038;-95
2024/01/15 02:31:43;;;;;;;11.27;2.97;;;;;;;0.70;100.00;100446.41;4887919;29;20098;-94
2024/01/15 02:34:09;;;;;;;8.07;3.15;;;;;;;0.75;100.00;100459.19;4886365;29;20126;-94
2024/01/15 02:36:38;;;;;;;13.65;2.30;;;;;;;0.74;100.00;100453.16;4900383;29;20132;-96
2024/01/15 02:39:08;;;;;;;7.20;3.05;;;;;;;0.71;100.00;100460.28;4900226;29;20062;-96
2024/01/15 02:41:34;;;;;;;9.75;3.50;;;;;;;0.74;100.00;100454.91;4895591;29;20119;-94
2024/01/15 02:44:00;;;;;;;9.23;3.40;;;;;;;0.68;100.00;100450.03;4894821;29;20191;-93
2024/01/15 02:46:26;;;;;;;6.32;2.78;;;;;;;0.64;100.00;100445.91;4889016;29;20139;-96
2024/01/15 02:48:55;;;;;;;15.52;2.53;;;;;;;0.70;100.00;100461.19;4912251;29;20036;-96
2024/01/15 02:51:26;;;;;;;8.15;2.70;;;;;;;0.64;100.00;100446.75;4885090;29;20556;-94
2024/01/15 02:53:53;;;;;;;9.02;2.55;;;;;;;0.57;100.00;100448.00;4887823;29;20040;-94
2024/01/15 02:56:19;;;;;;;9.07;2.53;;;;;;;0.51;100.00;100453.50;4897685;29;20058;-93
2024/01/15 02:58:44;;;;;;;13.65;2.35;;;;;;;0.46;100.00;100454.56;4883655;29;20040;-93
2024/01/15 03:01:10;;;;;;;9.57;2.50;;;;;;;0.49;100.00;100461.38;4879929;29;20453;-93
2024/01/15 03:03:36;;;;;;;6.60;2.25;;;;;;;0.48;100.00;100460.53;4904449;29;20047;-94
2024/01/15 03:06:02;;;;;;;7.07;1.88;;;;;;;0.39;100.00;100454.97;4907779;29;20044;-93
2024/01/15 03:08:29;;;;;;;7.25;2.00;;;;;;;0.43;100.00;100459.94;4903635;29;20027;-93
2024/01/15 03:10:54;;;;;;;5.05;1.88;;;;;;;0.41;100.00;100460.94;4889036;29;20047;-93
2024/01/15 03:13:20;;;;;;;7.85;2.20;;;;;;;0.43;100.00;100459.09;4904854;29;20031;-93
2024/01/15 03:15:46;;;;;;;8.63;1.83;;;;;;;0.40;100.00;100470.47;4890607;29;20035;-93
2024/01/15 03:18:12;;;;;;;8.05;2.05;;;;;;;0.39;100.00;100457.56;4887277;29;20063;-94
2024/01/15 03:20:37;;;;;;;12.80;2.75;;;;;;;0.34;100.00;100460.41;4890125;29;20040;-94
2024/01/15 03:23:03;;;;;;;7.20;1.70;;;;;;;0.31;100.00;100461.41;4889891;29;20040;-94
2024/01/15 03:25:29;;;;;;;7.00;1.35;;;;;;;0.32;100.00;100457.06;4889465;29;20035;-94
2024/01/15 03:27:55;;;;;;;6.72;2.25;;;;;;;0.30;100.00;100443.28;4906324;29;20032;-93
2024/01/15 03:30:21;;;;;;;6.38;1.48;;;;;;;0.35;100.00;100449.09;4892443;29;20036;-93
2024/01/15 03:32:47;;;;;;;9.88;1.88;;;;;;;0.37;100.00;100449.84;4889151;29;20122;-92
2024/01/15 03:35:13;;;;;;;6.65;1.40;;;;;;;0.38;100.00;100451.53;4904517;29;20043;-93
2024/01/15 03:37:39;;;;;;;5.55;1.13;;;;;;;0.36;100.00;100450.75;4885112;29;20123;-93
2024/01/15 03:40:05;;;;;;;13.43;1.83;;;;;;;0.35;100.00;100446.50;4882023;29;20050;-93
2024/01/15 03:42:31;;;;;;;11.57;1.40;;;;;;;0.33;100.00;100443.97;4884513;29;20500;-93
2024/01/15 03:44:57;;;;;;;3.05;0.98;;;;;;;0.36;100.00;100449.03;4885652;29;20054;-93
2024/01/15 03:47:23;;;;;;;6.38;1.02;;;;;;;0.32;100.00;100437.06;4901064;29;20139;-93
2024/01/15 03:49:49;;;;;;;5.85;1.10;;;;;;;0.36;100.00;100436.03;4913009;29;20519;-94
2024/01/15 03:52:17;;;;;;;6.80;1.17;;;;;;;0.38;100.00;100432.50;4888699;29;20042;-94
2024/01/15 03:54:43;;;;;;;8.32;1.48;;;;;;;0.35;100.00;100426.50;4892307;29;20205;-94
2024/01/15 03:57:09;;;;;;;8.90;1.20;;;;;;;0.30;100.00;100427.69;4903178;29;20503;-94
2024/01/15 03:59:35;;;;;;;8.15;1.50;;;;;;;0.33;100.00;100436.19;4901424;29;20043;-95
2024/01/15 04:02:01;;;;;;;5.55;1.55;;;;;;;0.29;100.00;100432.03;4886542;29;20406;-93
2024/01/15 04:04:26;;;;;;;7.38;1.58;;;;;;;0.32;100.00;100431.06;4889208;29;20035;-94
2024/01/15 04:06:52;;;;;;;3.97;1.83;;;;;;;0.30;100.00;100438.09;4903961;29;20039;-93
2024/01/15 04:09:18;;;;;;;4.90;1.90;;;;;;;0.30;100.00;100435.47;4904644;29;20039;-93
2024/01/15 04:11:46;;;;;;;4.55;1.77;;;;;;;0.29;100.00;100428.59;4894082;29;20047;-94
2024/01/15 04:14:15;;;;;;;8.77;1.90;;;;;;;0.31;100.00;100437.16;4892632;29;20040;-93
2024/01/15 04:16:41;;;;;;;6.63;2.80;;;;;;;0.32;100.00;100433.66;4902744;29;20035;-93
2024/01/15 04:19:07;;;;;;;7.72;1.98;;;;;;;0.29;100.00;100433.81;4900882;29;20039;-94
2024/01/15 04:21:33;;;;;;;7.10;2.33;;;;;;;0.27;100.00;100418.25;4891869;29;20187;-94
2024/01/15 04:23:59;;;;;;;9.10;2.20;;;;;;;0.29;100.00;100428.59;4892910;29;20643;-93
2024/01/15 04:26:25;;;;;;;8.90;1.98;;;;;;;0.27;100.00;100417.44;4900036;29;20074;-95
2024/01/15 04:28:54;;;;;;;10.02;2.72;;;;;;;0.29;100.00;100432.03;4884644;29;20135;-94
2024/01/15 04:31:24;;;;;;;9.20;2.38;;;;;;;0.33;100.00;100425.78;4900777;29;20044;-94
2024/01/15 04:33:50;;;;;;;7.30;1.88;;;;;;;0.28;100.00;100432.97;4896190;29;20031;-94
2024/01/15 04:36:16;;;;;;;7.13;2.40;;;;;;;0.29;100.00;100436.41;4904739;29;20046;-94
2024/01/15 04:38:42;;;;;;;5.60;1.95;;;;;;;0.23;100.00;100424.53;4904938;29;20035;-94
2024/01/15 04:41:16;;;;;;;7.22;2.67;;;;;;;0.31;100.00;100443.19;4903741;29;20051;-93
2024/01/15 04:43:42;;;;;;;5.55;2.45;;;;;;;0.24;100.00;100434.00;4886432;29;20044;-93
2024/01/15 04:46:08;;;;;;;8.15;3.45;;;;;;;0.24;100.00;100436.63;4901613;29;20048;-94
2024/01/15 04:48:34;;;;;;;9.85;1.80;;;;;;;0.19;100.00;100433.44;4893346;29;20485;-94
2024/01/15 04:51:00;;;;;;;7.38;1.85;;;;;;;0.21;100.00;100440.22;4904330;29;20048;-94
2024/01/15 04:53:26;;;;;;;9.00;1.67;;;;;;;0.17;100.00;100432.66;4886313;29;20098;-94
2024/01/15 04:55:52;;;;;;;4.97;1.60;;;;;;;0.17;100.00;100430.06;4903446;29;20071;-94
2024/01/15 04:58:18;;;;;;;6.05;1.92;;;;;;;0.19;100.00;100436.03;4904667;29;20126;-93
2024/01/15 05:00:44;;;;;;;5.03;1.73;;;;;;;0.19;100.00;100439.44;4903410;29;20054;-94
2024/01/15 05:03:09;;;;;;;5.30;1.73;;;;;;;0.20;100.00;100440.28;4896583;29;20040;-94
2024/01/15 05:05:35;;;;;;;6.72;1.60;;;;;;;0.20;100.00;100442.91;4899064;29;20130;-94
2024/01/15 05:08:01;;;;;;;7.35;1.70;;;;;;;0.15;100.00;100417.13;4890361;29;20050;-96
2024/01/15 05:10:28;;;;;;;9.05;1.50;;;;;;;0.16;100.00;100437.00;4905395;29;20432;-95
2024/01/15 05:12:56;;;;;;;4.20;1.25;;;;;;;0.09;100.00;100433.91;4890050;29;20066;-94
2024/01/15 05:15:22;;;;;;;12.20;1.90;;;;;;;0.12;100.00;100435.50;4903992;29;20043;-94
2024/01/15 05:17:48;;;;;;;7.10;1.58;;;;;;;0.11;100.00;100428.63;4887161;29;20063;-95
2024/01/15 05:20:14;;;;;;;3.00;1.20;;;;;;;0.14;100.00;100436.25;4903054;29;20032;-94
2024/01/15 05:22:40;;;;;;;4.07;1.20;;;;;;;0.11;100.00;100439.84;4889877;29;20091;-91
2024/01/15 05:25:06;;;;;;;4.65;1.10;;;;;;;0.05;100.00;100431.53;4890402;29;20035;-94
2024/01/15 05:27:32;;;;;;;5.32;1.42;;;;;;;0.11;100.00;100439.84;4886867;29;20048;-94
2024/01/15 05:29:58;;;;;;;5.32;1.20;;;;;;;0.11;100.00;100441.63;4900064;29;20091;-93
2024/01/15 05:32:24;;;;;;;8.15;1.20;;;;;;;0.14;100.00;100445.81;4877641;29;20051;-93
2024/01/15 05:34:50;;;;;;;6.57;1.33;;;;;;;0.13;100.00;100433.75;4902752;29;20044;-94
2024/01/15 05:37:16;;;;;;;2.22;0.90;;;;;;;0.18;100.00;100455.97;4890143;29;20043;-94
2024/01/15 05:39:42;;;;;;;6.72;0.93;;;;;;;0.16;100.00;100433.59;4902435;29;20044;-94
2024/01/15 05:42:09;;;;;;;3.40;0.73;;;;;;;0.20;100.00;100442.91;4881911;29;20367;-96
2024/01/15 05:44:35;;;;;;;8.23;0.88;;;;;;;0.19;100.00;100436.84;4889024;29;20047;-94
2024/01/15 05:47:01;;;;;;;5.97;0.90;;;;;;;0.23;100.00;100445.34;4887308;29;20047;-94
2024/01/15 05:49:26;;;;;;;6.93;1.15;;;;;;;0.21;100.00;100439.38;4900000;29;20036;-94
2024/01/15 05:51:58;;;;;;;3.28;0.60;;;;;;;0.24;100.00;100447.00;4899853;29;20070;-94
2024/01/15 05:54:27;;;;;;;7.28;0.82;;;;;;;0.18;100.00;100452.53;4888465;29;20043;-94
2024/01/15 05:56:53;;;;;;;4.53;1.10;;;;;;;0.14;100.00;100440.59;4902248;29;20107;-94
2024/01/15 05:59:19;;;;;;;3.72;0.60;;;;;;;0.18;100.00;100445.56;4882797;29;20043;-94
2024/01/15 06:01:44;;;;;;;5.13;0.70;;;;;;;0.17;100.00;100451.69;4884024;29;20039;-93
2024/01/15 06:04:10;;;;;;;5.80;1.33;;;;;;;0.17;100.00;100459.50;4887634;29;20032;-93
2024/01/15 06:06:36;;;;;;;4.28;0.57;;;;;;;0.11;100.00;100441.63;4903297;29;20024;-95
2024/01/15 06:09:05;;;;;;;7.18;0.80;;;;;;;0.16;100.00;100456.97;4906530;29;20114;-94
2024/01/15 06:11:32;;;;;;;2.95;0.60;;;;;;;0.19;100.00;100449.03;4888404;29;20134;-94
2024/01/15 06:14:00;;;;;;;3.92;0.60;;;;;;;0.20;100.00;100448.09;4901376;29;20067;-94
2024/01/15 06:16:29;;;;;;;4.82;0.70;;;;;;;0.24;100.00;100458.25;4914013;29;20032;-93
2024/01/15 06:18:55;;;;;;;6.72;0.50;;;;;;;0.14;100.00;100449.25;4900554;29;20036;-94
2024/01/15 06:21:20;;;;;;;3.85;0.93;;;;;;;0.17;100.00;100449.09;4887821;29;20035;-94
2024/01/15 06:23:46;;;;;;;4.57;0.68;;;;;;;0.23;100.00;100450.53;4887943;29;20392;-93
2024/01/15 06:26:12;;;;;;;2.38;0.52;;;;;;;0.22;100.00;100446.28;4902295;29;20448;-93
2024/01/15 06:28:44;;;;;;;3.45;0.57;;;;;;;0.21;100.00;100441.97;4890952;29;20118;-93
2024/01/15 06:31:11;;;;;;;4.05;0.70;;;;;;;0.28;100.00;100466.75;4906135;29;20046;-94
2024/01/15 06:33:36;;;;;;;4.50;0.60;;;;;;;0.29;100.00;100462.41;4905651;29;20028;-93
2024/01/15 06:36:03;;;;;;;4.05;0.45;;;;;;;0.28;100.00;100465.91;4909772;29;20088;-93
2024/01/15 06:38:28;;;;;;;8.43;0.80;;;;;;;0.31;100.00;100473.56;4903232;29;20104;-92
2024/01/15 06:40:54;;;;;;;10.65;1.63;;;;;;;0.31;100.00;100463.16;4908528;29;20670;-93
2024/01/15 06:43:20;;;;;;;30.73;8.23;;;;;;;0.33;100.00;100458.72;4889646;29;20110;-93
2024/01/15 06:45:46;;;;;;;20.95;6.13;;;;;;;0.28;100.00;100458.09;4905927;29;20095;-94
2024/01/15 06:48:16;;;;;;;13.00;3.60;;;;;;;0.33;100.00;100463.94;4886801;29;20039;-94
2024/01/15 06:50:43;;;;;;;6.32;1.65;;;;;;;0.30;100.00;100462.34;4905739;29;20043;-94
2024/01/15 06:53:09;;;;;;;4.82;0.82;;;;;;;0.27;100.00;100465.06;4905872;29;20040;-93
2024/01/15 06:55:34;;;;;;;5.30;0.90;;;;;;;0.29;100.00;100473.63;4905484;29;20075;-93
2024/01/15 06:58:00;;;;;;;6.65;0.73;;;;;;;0.27;100.00;100465.06;4889668;29;20040;-93
2024/01/15 07:00:27;;;;;;;3.72;0.70;;;;;;;0.24;100.00;100463.47;4893562;29;20040;-94
2024/01/15 07:02:53;;;;;;;8.68;0.70;;;;;;;0.19;100.00;100457.66;4908487;29;20036;-94
2024/01/15 07:05:21;;;;;;;6.13;0.60;;;;;;;0.15;100.00;100458.72;4906746;29;20046;-92
2024/01/15 07:07:47;;;;;;;3.60;0.45;;;;;;;0.05;100.00;100450.53;4915142;29;20043;-93
2024/01/15 07:10:13;;;;;;;1.73;1.13;;;;;;;0.08;100.00;100463.38;4886820;29;20052;-92
2024/01/15 07:12:42;;;;;;;4.95;0.55;;;;;;;0.15;100.00;100465.66;4917544;29;20059;-92
2024/01/15 07:15:08;;;;;;;5.40;0.70;;;;;;;0.14;100.00;100466.59;4886667;29;20044;-92
2024/01/15 07:17:34;;;;;;;20.85;15.02;;;;;;;0.15;100.00;100476.06;4893167;29;20043;-92
2024/01/15 07:20:01;;;;;;;4.07;1.25;;;;;;;0.16;100.00;100475.16;4888670;29;20041;-92
2024/01/15 07:22:27;;;;;;;2.58;0.60;;;;;;;0.10;100.00;100469.34;4906830;29;20036;-93
2024/01/15 07:24:53;;;;;;;2.53;0.80;;;;;;;0.11;100.00;100476.22;4900621;29;20039;-92
2024/01/15 07:27:19;;;;;;;6.63;0.90;;;;;;;0.10;100.00;100469.34;4906085;29;20044;-94
2024/01/15 07:29:45;;;;;;;3.92;0.70;;;;;;;0.08;100.00;100471.19;4892362;29;20042;-93
2024/01/15 07:32:11;;;;;;;5.65;0.57;;;;;;;0.08;100.00;100486.78;4906329;29;20027;-93
2024/01/15 07:34:37;;;;;;;3.00;1.17;;;;;;;0.04;100.00;100479.19;4904269;29;20039;-94
2024/01/15 07:37:03;;;;;;;6.95;1.15;;;;;;;0.05;100.00;100492.13;4894199;29;20047;-95
2024/01/15 07:39:30;;;;;;;6.97;1.48;;;;;;;0.08;100.00;100502.38;4889769;29;20138;-93
2024/01/15 07:41:56;;;;;;;3.13;0.70;;;;;;;0.14;100.00;100509.03;4903463;29;20544;-93
2024/01/15 07:44:22;;;;;;;9.15;0.88;;;;;;;0.08;100.00;100488.56;4894012;29;20044;-93
2024/01/15 07:46:48;;;;;;;5.43;0.90;;;;;;;0.15;100.00;100504.66;4898252;29;20068;-94
2024/01/15 07:49:14;;;;;;;4.18;0.77;;;;;;;0.12;100.00;100505.66;4902032;29;20077;-95
2024/01/15 07:51:40;;;;;;;4.50;0.73;;;;;;;0.07;100.00;100497.25;4903677;29;20036;-95
2024/01/15 07:54:07;;;;;;;4.57;1.17;;;;;;;-0.01;100.00;100495.03;4889457;29;20050;-93
2024/01/15 07:56:33;;;;;;;2.90;0.60;;;;;;;-0.05;100.00;100493.50;4886274;29;20279;-94
2024/01/15 07:58:59;;;;;;;5.63;1.35;;;;;;;-0.08;100.00;100494.47;4888150;29;20067;-94
2024/01/15 08:01:25;;;;;;;5.90;1.00;;;;;;;-0.08;100.00;100504.88;4889530;29;20472;-93
2024/01/15 08:03:52;;;;;;;4.30;1.10;;;;;;;-0.08;100.00;100511.84;4889643;29;20042;-93
2024/01/15 08:06:18;;;;;;;2.95;0.80;;;;;;;-0.17;100.00;100506.16;4906915;29;20032;-93
2024/01/15 08:08:44;;;;;;;2.65;0.75;;;;;;;-0.09;100.00;100504.94;4897991;29;20488;-93
2024/01/15 08:11:09;;;;;;;5.75;0.90;;;;;;;-0.15;100.00;100504.34;4888715;29;20059;-93
2024/01/15 08:13:35;;;;;;;5.80;0.50;;;;;;;-0.21;100.00;100498.59;4905597;29;20043;-95
2024/01/15 08:16:02;;;;;;;2.97;1.13;;;;;;;-0.36;100.00;100490.59;4892512;29;20043;-95
2024/01/15 08:18:28;;;;;;;4.18;1.02;;;;;;;-0.42;100.00;100496.09;4894485;29;20477;-96
2024/01/15 08:20:54;;;;;;;5.25;0.93;;;;;;;-0.46;100.00;100495.38;4888743;29;20042;-93
2024/01/15 08:23:21;;;;;;;5.38;1.00;;;;;;;-0.52;100.00;100490.47;4910820;29;20093;-94
2024/01/15 08:25:47;;;;;;;8.85;1.73;;;;;;;-0.45;100.00;100515.25;4892420;29;20046;-93
2024/01/15 08:28:13;;;;;;;7.05;0.98;;;;;;;-0.40;100.00;100517.63;4903936;29;20306;-94
2024/01/15 08:30:38;;;;;;;9.55;1.45;;;;;;;-0.36;100.00;100515.72;4893611;29;20050;-92
2024/01/15 08:33:04;;;;;;;6.82;1.02;;;;;;;-0.32;100.00;100512.09;4905095;29;20039;-94
2024/01/15 08:35:30;;;;;;;5.90;0.88;;;;;;;-0.38;100.00;100510.59;4892940;29;20392;-94
2024/01/15 08:37:58;;;;;;;3.10;0.60;;;;;;;-0.45;100.00;100501.41;4891032;29;20031;-93
2024/01/15 08:40:24;;;;;;;5.28;1.23;;;;;;;-0.63;100.00;100499.63;4907027;29;20074;-93
2024/01/15 08:42:52;;;;;;;9.65;1.40;;;;;;;-0.71;100.00;100496.53;4891692;29;20118;-94
2024/01/15 08:45:18;;;;;;;5.47;1.35;;;;;;;-0.72;100.00;100517.34;4904229;29;20211;-94
2024/01/15 08:47:44;;;;;;;6.88;1.20;;;;;;;-0.64;100.00;100521.28;4886594;29;20073;-94
2024/01/15 08:50:10;;;;;;;5.13;1.30;;;;;;;-0.56;100.00;100523.56;4886168;29;20063;-94
2024/01/15 08:52:37;;;;;;;4.53;1.55;;;;;;;-0.46;100.00;100536.94;4910082;29;20031;-94
2024/01/15 08:55:04;;;;;;;6.75;1.13;;;;;;;-0.43;100.00;100529.00;4923104;29;20051;-93
2024/01/15 08:57:30;;;;;;;9.23;5.35;;;;;;;-0.42;100.00;100522.06;4908450;29;20047;-93
2024/01/15 08:59:56;;;;;;;7.75;1.90;;;;;;;-0.46;100.00;100526.53;4904226;29;20252;-93
2024/01/15 09:02:21;;;;;;;3.03;1.20;;;;;;;-0.58;100.00;100514.13;4903014;29;20035;-92
2024/01/15 09:04:47;;;;;;;7.70;1.67;;;;;;;-0.68;100.00;100514.56;4902901;29;20492;-93
2024/01/15 09:07:13;;;;;;;6.80;1.30;;;;;;;-0.71;100.00;100524.22;4895283;29;20039;-93
2024/01/15 09:09:39;;;;;;;7.72;2.00;;;;;;;-0.65;100.00;100534.31;4888328;29;20039;-93
2024/01/15 09:12:05;;;;;;;6.05;1.15;;;;;;;-0.57;100.00;100541.75;4887561;29;20027;-93
2024/01/15 09:14:31;;;;;;;12.15;2.75;;;;;;;-0.53;100.00;100531.19;4886958;29;20447;-94
2024/01/15 09:16:57;;;;;;;11.50;2.65;;;;;;;-0.38;100.00;100544.38;4887992;29;20130;-93
2024/01/15 09:19:23;;;;;;;10.55;1.63;;;;;;;-0.28;100.00;100534.41;4873562;29;20044;-93
2024/01/15 09:21:48;;;;;;;10.02;2.05;;;;;;;-0.27;100.00;100531.72;4902603;29;20059;-93
2024/01/15 09:24:14;;;;;;;3.17;1.20;;;;;;;-0.31;100.00;100529.34;4885318;29;20039;-93
2024/01/15 09:26:40;;;;;;;8.23;1.45;;;;;;;-0.39;100.00;100527.97;4902390;29;20086;-93
2024/01/15 09:29:06;;;;;;;10.85;1.25;;;;;;;-0.40;100.00;100531.44;4879164;29;20616;-94
2024/01/15 09:31:31;;;;;;;4.78;1.10;;;;;;;-0.40;100.00;100533.22;4870315;29;20804;-94
2024/01/15 09:34:00;;;;;;;4.03;1.00;;;;;;;-0.27;100.00;100551.69;4882190;29;20037;-93
2024/01/15 09:36:26;;;;;;;9.13;2.30;;;;;;;-0.17;100.00;100552.94;4905963;29;20055;-93
2024/01/15 09:38:52;;;;;;;3.40;1.20;;;;;;;-0.08;100.00;100553.41;4887787;29;20059;-93
2024/01/15 09:41:18;;;;;;;6.10;1.20;;;;;;;0.00;100.00;100553.91;4884192;29;20038;-92
2024/01/15 09:43:45;;;;;;;72.35;43.22;;;;;;;0.04;100.00;100546.78;4886035;29;20836;-93
2024/01/15 09:46:11;;;;;;;14.35;4.40;;;;;;;-0.01;100.00;100542.66;4888421;29;20111;-93
2024/01/15 09:48:38;;;;;;;8.57;2.88;;;;;;;-0.06;100.00;100543.75;4887387;29;20060;-93
2024/01/15 09:51:07;;;;;;;9.30;1.80;;;;;;;-0.07;100.00;100542.94;4886452;29;20044;-93
2024/01/15 09:53:34;;;;;;;8.73;2.00;;;;;;;-0.06;100.00;100548.97;4890020;29;20047;-93
2024/01/15 09:55:59;;;;;;;10.93;2.03;;;;;;;-0.03;100.00;100544.47;4885613;29;20168;-93
2024/01/15 09:58:26;;;;;;;12.35;1.75;;;;;;;0.10;100.00;100557.72;4887630;29;20502;-93
2024/01/15 10:00:52;;;;;;;10.30;1.02;;;;;;;0.21;100.00;100562.41;4887168;29;20032;-94
2024/01/15 10:03:18;;;;;;;2.97;1.30;;;;;;;0.30;100.00;100552.47;4882587;29;20035;-93
2024/01/15 10:05:44;;;;;;;6.03;1.20;;;;;;;0.34;100.00;100541.84;4886753;29;20044;-92
2024/01/15 10:08:11;;;;;;;6.63;1.48;;;;;;;0.44;100.00;100539.66;4893417;29;20048;-93
2024/01/15 10:10:37;;;;;;;8.32;1.30;;;;;;;0.47;100.00;100536.03;4885609;29;20033;-94
2024/01/15 10:13:04;;;;;;;7.88;1.08;;;;;;;0.60;100.00;100547.53;4884107;29;20056;-93
2024/01/15 10:15:33;;;;;;;9.43;1.30;;;;;;;0.71;100.00;100561.75;4887413;29;20059;-93
2024/01/15 10:17:59;;;;;;;6.78;1.02;;;;;;;0.83;100.00;100558.50;4887415;29;20405;-93
2024/01/15 10:20:25;;;;;;;5.50;1.15;;;;;;;0.97;100.00;100564.78;4897915;29;20040;-94
2024/01/15 10:22:51;;;;;;;5.78;2.28;;;;;;;1.13;100.00;100557.03;4881149;29;20067;-93
2024/01/15 10:25:22;;;;;;;5.15;1.20;;;;;;;1.22;100.00;100553.94;4884208;29;20524;-94
2024/01/15 10:28:00;;;;;;;7.88;1.45;;;;;;;1.33;100.00;100539.50;4882115;29;20036;-94
2024/01/15 10:30:25;;;;;;;6.72;1.60;;;;;;;1.27;100.00;100538.06;4880738;29;20127;-94
2024/01/15 10:32:59;;;;;;;7.25;1.17;;;;;;;1.30;100.00;100537.91;4888766;29;20119;-94
2024/01/15 10:35:33;;;;;;;13.88;6.18;;;;;;;1.32;100.00;100541.25;4902491;29;20110;-93
2024/01/15 10:38:02;;;;;;;7.22;1.90;;;;;;;1.29;100.00;100541.41;4893844;29;20204;-93
2024/01/15 10:40:29;;;;;;;7.57;2.63;;;;;;;1.31;100.00;100544.78;4884747;29;20048;-93
2024/01/15 10:42:55;;;;;;;4.28;1.40;;;;;;;1.34;100.00;100542.00;4888810;29;20028;-94
2024/01/15 10:45:20;;;;;;;6.00;1.50;;;;;;;1.40;100.00;100547.81;4887903;29;20039;-94
2024/01/15 10:47:46;;;;;;;6.90;1.42;;;;;;;1.42;100.00;100543.38;4887275;29;20055;-94
2024/01/15 10:50:12;;;;;;;4.45;1.35;;;;;;;1.45;100.00;100536.22;4874202;29;20059;-94
2024/01/15 10:52:40;;;;;;;9.57;1.38;;;;;;;1.48;100.00;100541.25;4882795;29;20036;-93
2024/01/15 10:55:10;;;;;;;8.07;1.73;;;;;;;1.49;100.00;100549.94;4884155;29;20052;-93
2024/01/15 10:57:37;;;;;;;7.53;1.40;;;;;;;1.54;100.00;100555.75;4880732;29;20046;-94
2024/01/15 11:00:05;;;;;;;8.90;1.35;;;;;;;1.58;100.00;100562.47;4883077;29;20091;-94
2024/01/15 11:02:34;;;;;;;8.43;1.15;;;;;;;1.65;100.00;100567.34;4878881;29;20036;-94
2024/01/15 11:05:00;;;;;;;4.63;1.25;;;;;;;1.69;100.00;100568.88;4880725;29;20044;-94
2024/01/15 11:07:27;;;;;;;8.35;1.35;;;;;;;1.76;100.00;100574.56;4882963;29;20489;-93
2024/01/15 11:09:53;;;;;;;5.25;1.15;;;;;;;1.80;100.00;100561.28;4885429;29;20120;-93
2024/01/15 11:12:19;;;;;;;4.47;0.95;;;;;;;1.77;100.00;100558.03;4880075;29;20192;-93
2024/01/15 11:14:49;;;;;;;12.98;1.33;;;;;;;1.80;100.00;100558.69;4891766;29;20095;-93
2024/01/15 11:17:17;;;;;;;9.85;1.15;;;;;;;1.84;100.00;100562.81;4881605;29;20051;-93
2024/01/15 11:19:47;;;;;;;14.80;2.20;;;;;;;1.91;100.00;100563.28;4899396;29;20028;-95